createdAt,value
2022-11-15T00:00:24.247Z,11.50
2022-11-15T00:05:49.223Z,12.15
2022-11-15T00:11:15.803Z,12.00
2022-11-15T00:16:40.482Z,10.95
2022-11-15T00:22:05.042Z,11.35
2022-11-15T00:27:31.330Z,12.57
2022-11-15T00:32:56.185Z,12.48
2022-11-15T00:38:20.815Z,11.65
2022-11-15T00:43:47.339Z,14.20
2022-11-15T00:49:12.590Z,14.43
2022-11-15T00:54:37.217Z,14.48
2022-11-15T01:00:03.256Z,14.35
2022-11-15T01:05:28.150Z,15.15
2022-11-15T01:10:52.582Z,13.82
2022-11-15T01:16:20.772Z,15.68
2022-11-15T01:21:45.691Z,16.25
2022-11-15T01:27:11.293Z,15.05
2022-11-15T01:32:37.380Z,16.73
2022-11-15T01:38:02.119Z,14.93
2022-11-15T01:43:30.004Z,15.77
2022-11-15T01:49:00.080Z,14.60
2022-11-15T01:54:26.440Z,15.82
2022-11-15T01:59:51.603Z,15.10
2022-11-15T02:05:18.031Z,15.63
2022-11-15T02:10:42.866Z,14.85
2022-11-15T02:16:24.726Z,15.32
2022-11-15T02:22:06.778Z,14.32
2022-11-15T02:28:13.301Z,14.35
2022-11-15T02:33:52.224Z,13.75
2022-11-15T02:39:25.914Z,15.00
2022-11-15T02:44:52.055Z,16.42
2022-11-15T02:50:23.404Z,15.93
2022-11-15T02:55:53.057Z,14.23
2022-11-15T03:01:34.922Z,15.68
2022-11-15T03:07:10.831Z,14.73
2022-11-15T03:12:42.243Z,15.73
2022-11-15T03:18:15.219Z,16.67
2022-11-15T03:23:42.684Z,16.80
2022-11-15T03:29:12.277Z,15.75
2022-11-15T03:34:44.405Z,16.33
2022-11-15T03:40:13.136Z,17.27
2022-11-15T03:45:44.111Z,16.90
2022-11-15T03:51:09.220Z,16.38
2022-11-15T03:56:35.513Z,16.85
2022-11-15T04:02:00.411Z,16.30
2022-11-15T04:07:25.153Z,17.13
2022-11-15T04:12:51.872Z,18.67
2022-11-15T04:18:16.646Z,15.82
2022-11-15T04:23:58.614Z,15.45
2022-11-15T04:29:37.198Z,17.55
2022-11-15T04:35:02.125Z,16.38
2022-11-15T04:40:28.663Z,16.88
2022-11-15T04:45:55.367Z,17.02
2022-11-15T04:51:21.929Z,17.70
2022-11-15T04:56:46.639Z,18.42
2022-11-15T05:02:13.084Z,15.63
2022-11-15T05:07:37.847Z,15.88
2022-11-15T05:13:02.737Z,16.85
2022-11-15T05:18:28.788Z,16.83
2022-11-15T05:23:53.546Z,16.50
2022-11-15T05:29:18.190Z,15.32
2022-11-15T05:34:44.191Z,14.13
2022-11-15T05:40:11.042Z,16.70
2022-11-15T05:45:37.085Z,15.32
2022-11-15T05:51:04.305Z,13.75
2022-11-15T05:56:29.511Z,15.65
2022-11-15T06:01:54.220Z,14.50
2022-11-15T06:07:21.174Z,16.25
2022-11-15T06:12:46.440Z,14.45
2022-11-15T06:18:11.449Z,15.40
2022-11-15T06:23:38.495Z,15.20
2022-11-15T06:29:04.883Z,16.42
2022-11-15T06:34:29.894Z,14.52
2022-11-15T06:39:55.853Z,16.08
2022-11-15T06:45:20.501Z,15.45
2022-11-15T06:50:45.304Z,16.92
2022-11-15T06:56:11.871Z,17.80
2022-11-15T07:01:36.697Z,16.58
2022-11-15T07:07:01.771Z,15.65
2022-11-15T07:12:28.161Z,17.10
2022-11-15T07:17:52.995Z,16.52
2022-11-15T07:23:17.661Z,16.50
2022-11-15T07:28:44.262Z,16.05
2022-11-15T07:34:09.799Z,17.05
2022-11-15T07:39:34.359Z,15.38
2022-11-15T07:45:00.418Z,17.52
2022-11-15T07:50:25.659Z,15.30
2022-11-15T07:55:50.381Z,16.48
2022-11-15T08:01:16.344Z,15.88
2022-11-15T08:06:41.549Z,12.80
2022-11-15T08:12:07.307Z,16.60
2022-11-15T08:17:35.248Z,14.30
2022-11-15T08:23:00.656Z,13.85
2022-11-15T08:28:25.389Z,15.23
2022-11-15T08:33:51.678Z,14.82
2022-11-15T08:39:16.887Z,15.60
2022-11-15T08:44:41.750Z,15.90
2022-11-15T08:50:09.515Z,14.68
2022-11-15T08:55:34.457Z,12.88
2022-11-15T09:00:59.181Z,14.80
2022-11-15T09:06:25.279Z,14.15
2022-11-15T09:11:50.308Z,16.27
2022-11-15T09:17:15.385Z,14.10
2022-11-15T09:22:43.688Z,15.63
2022-11-15T09:28:10.465Z,16.35
2022-11-15T09:33:35.597Z,14.13
2022-11-15T09:39:02.720Z,16.10
2022-11-15T09:44:52.448Z,15.68
2022-11-15T09:50:22.241Z,15.10
2022-11-15T09:55:43.603Z,17.73
2022-11-15T10:00:54.174Z,16.27
2022-11-15T10:06:04.568Z,15.63
2022-11-15T10:17:24.334Z,15.68
2022-11-15T10:22:37.799Z,15.30
2022-11-15T10:27:48.207Z,15.40
2022-11-15T10:32:54.505Z,15.75
2022-11-15T10:38:09.925Z,15.85
2022-11-15T10:43:22.147Z,15.95
2022-11-15T10:48:29.115Z,15.23
2022-11-15T10:53:42.071Z,16.38
2022-11-15T10:58:56.955Z,18.13
2022-11-15T11:04:06.028Z,16.20
2022-11-15T11:14:34.413Z,15.70
2022-11-15T11:20:04.877Z,17.13
2022-11-15T11:25:30.812Z,19.73
2022-11-15T11:30:53.039Z,17.95
2022-11-15T11:36:14.702Z,17.08
2022-11-15T11:41:41.781Z,16.90
2022-11-15T11:47:02.241Z,16.30
2022-11-15T11:52:16.240Z,18.02
2022-11-15T11:57:42.008Z,16.75
2022-11-15T12:03:03.646Z,18.75
2022-11-15T12:08:28.582Z,17.85
2022-11-15T12:13:37.988Z,19.50
2022-11-15T12:18:51.646Z,18.65
2022-11-15T12:24:05.714Z,18.90
2022-11-15T12:29:22.239Z,17.42
2022-11-15T12:34:48.340Z,20.48
2022-11-15T12:40:39.195Z,20.38
2022-11-15T12:45:47.533Z,21.17
2022-11-15T12:51:00.163Z,19.45
2022-11-15T12:56:26.246Z,18.60
2022-11-15T13:02:02.722Z,17.30
2022-11-15T13:07:30.827Z,17.02
2022-11-15T13:13:01.590Z,14.27
2022-11-15T13:18:39.178Z,19.10
2022-11-15T13:23:53.826Z,18.90
2022-11-15T13:29:00.763Z,19.15
2022-11-15T13:34:50.526Z,19.02
2022-11-15T13:39:56.284Z,20.08
2022-11-15T13:45:05.370Z,22.65
2022-11-15T13:50:15.183Z,19.33
2022-11-15T13:55:26.231Z,23.75
2022-11-15T14:00:41.448Z,21.00
2022-11-15T14:06:05.100Z,20.02
2022-11-15T14:11:23.204Z,21.67
2022-11-15T14:16:38.262Z,21.50
2022-11-15T14:22:17.638Z,18.55
2022-11-15T14:27:28.606Z,19.15
2022-11-15T14:32:47.101Z,17.92
2022-11-15T14:37:53.773Z,17.70
2022-11-15T14:43:01.700Z,19.23
2022-11-15T14:48:08.405Z,16.75
2022-11-15T14:53:17.541Z,18.35
2022-11-15T14:58:25.167Z,18.08
2022-11-15T15:03:31.444Z,19.77
2022-11-15T15:08:38.416Z,17.85
2022-11-15T15:13:46.247Z,19.23
2022-11-15T15:18:52.839Z,24.65
2022-11-15T15:23:59.220Z,23.00
2022-11-15T15:29:10.149Z,27.67
2022-11-15T15:34:17.059Z,26.80
2022-11-15T15:39:23.695Z,17.33
2022-11-15T15:44:31.389Z,17.05
2022-11-15T15:49:37.618Z,18.55
2022-11-15T15:54:44.828Z,18.35
2022-11-15T15:59:52.568Z,19.05
2022-11-15T16:05:00.564Z,18.77
2022-11-15T16:10:23.994Z,20.20
2022-11-15T16:15:34.363Z,17.58
2022-11-15T16:20:43.976Z,19.10
2022-11-15T16:25:53.955Z,20.48
2022-11-15T16:31:07.261Z,20.33
2022-11-15T16:36:28.645Z,21.85
2022-11-15T16:41:36.356Z,20.88
2022-11-15T16:46:48.066Z,19.98
2022-11-15T16:51:54.544Z,20.20
2022-11-15T16:57:01.321Z,18.40
2022-11-15T17:02:14.235Z,17.95
2022-11-15T17:07:21.655Z,16.10
2022-11-15T17:12:29.709Z,15.63
2022-11-15T17:22:47.645Z,15.90
2022-11-15T17:27:55.593Z,15.50
2022-11-15T17:33:04.219Z,18.05
2022-11-15T17:38:11.277Z,15.60
2022-11-15T17:43:18.083Z,15.23
2022-11-15T17:48:27.364Z,17.17
2022-11-15T17:53:37.139Z,16.42
2022-11-15T17:58:44.577Z,16.52
2022-11-15T18:03:53.742Z,16.17
2022-11-15T18:14:17.144Z,15.13
2022-11-15T18:19:26.138Z,12.05
2022-11-15T18:24:34.380Z,12.60
2022-11-15T18:29:41.383Z,9.65
2022-11-15T18:34:49.416Z,13.18
2022-11-15T18:39:56.277Z,14.27
2022-11-15T18:45:03.808Z,12.38
2022-11-15T18:50:14.547Z,12.63
2022-11-15T18:55:21.784Z,10.95
2022-11-15T19:00:30.036Z,10.53
2022-11-15T19:05:38.932Z,11.52
2022-11-15T19:10:45.845Z,14.63
2022-11-15T19:16:00.843Z,15.07
2022-11-15T19:21:14.883Z,13.63
2022-11-15T19:26:25.464Z,12.98
2022-11-15T19:31:33.496Z,15.30
2022-11-15T19:36:43.968Z,12.65
2022-11-15T19:41:51.761Z,15.70
2022-11-15T19:46:59.973Z,13.07
2022-11-15T19:52:08.989Z,12.10
2022-11-15T20:02:22.672Z,14.07
2022-11-15T20:07:31.780Z,11.50
2022-11-15T20:17:49.560Z,16.20
2022-11-15T20:23:01.124Z,14.10
2022-11-15T20:28:19.712Z,14.38
2022-11-15T20:33:27.552Z,20.55
2022-11-15T20:38:36.449Z,12.43
2022-11-15T20:43:43.987Z,12.15
2022-11-15T20:48:51.055Z,11.90
2022-11-15T20:54:00.333Z,9.73
2022-11-15T20:59:07.739Z,8.82
2022-11-15T21:04:14.643Z,9.27
2022-11-15T21:09:40.074Z,9.38
2022-11-15T21:14:49.191Z,9.20
2022-11-15T21:19:56.594Z,10.23
2022-11-15T21:25:04.114Z,10.43
2022-11-15T21:30:12.444Z,10.60
2022-11-15T21:35:18.756Z,9.70
2022-11-15T21:40:26.794Z,8.43
2022-11-15T21:45:33.290Z,10.60
2022-11-15T21:50:39.844Z,8.63
2022-11-15T21:55:47.620Z,8.18
2022-11-15T22:01:13.563Z,8.35
2022-11-15T22:06:20.146Z,9.15
2022-11-15T22:11:27.851Z,9.82
2022-11-15T22:16:34.547Z,11.63
2022-11-15T22:21:41.209Z,9.85
2022-11-15T22:26:48.953Z,11.82
2022-11-15T22:31:55.116Z,10.20
2022-11-15T22:42:29.528Z,9.95
2022-11-15T22:47:35.752Z,10.80
2022-11-15T22:52:42.255Z,12.00
2022-11-15T22:57:49.980Z,11.45
2022-11-15T23:02:56.048Z,12.10
2022-11-15T23:08:02.163Z,12.05
2022-11-15T23:13:17.796Z,23.27
2022-11-15T23:18:23.826Z,14.43
2022-11-15T23:23:30.015Z,13.27
2022-11-15T23:28:37.994Z,17.73
2022-11-15T23:33:59.218Z,17.67
2022-11-15T23:39:05.790Z,9.77
2022-11-15T23:44:13.659Z,10.50
2022-11-15T23:49:20.289Z,10.52
2022-11-15T23:54:27.064Z,8.98
2022-11-15T23:59:35.865Z,10.60
